Terminal Aerodrome Forecast
Issued by NWS Kansas City/Pleasant Hill, MO

Current Version | Previous Version | Text Only | Print | Product List | Glossary On
Versions: 1 2 3 4 5 6 7 8 9 10 11 12 13 14
000
FTUS43 KEAX 311200 AAA
TAFMCI
TAF AMD
KMCI 311233Z 3113/0112 17004KT P6SM -RA BKN023 OVC028
     FM312100 15010KT 5SM -RA BR BKN008 OVC012
     FM011000 VRB05KT 3SM -SN BR OVC006=

USA.gov is the U.S. government's official web portal to all federal, state and local government web resources and services.